sensor_id;sensor_type;location;lat;lon;timestamp;pressure;altitude;pressure_sealevel;temperature;humidity
43125;BME280;49182;50.788;7.318;2023-01-29T03:10:12;102087.72;;;-6.48;91.34
43125;BME280;49182;50.788;7.318;2023-01-29T03:12:45;102140.91;;;-6.31;91.48
43125;BME280;49182;50.788;7.318;2023-01-29T03:15:17;102189.97;;;-5.94;91.57
43125;BME280;49182;50.788;7.318;2023-01-29T03:18:04;102055.00;;;-6.78;91.09
43125;BME280;49182;50.788;7.318;2023-01-29T03:20:36;102054.00;;;-6.99;91.39
43125;BME280;49182;50.788;7.318;2023-01-29T03:23:12;102151.16;;;-6.38;91.66
43125;BME280;49182;50.788;7.318;2023-01-29T03:25:42;102101.34;;;-6.57;91.81
43125;BME280;49182;50.788;7.318;2023-01-29T03:28:12;102104.78;;;-6.61;91.14
43125;BME280;49182;50.788;7.318;2023-01-29T03:30:47;102080.69;;;-6.80;90.56
43125;BME280;49182;50.788;7.318;2023-01-29T03:33:41;102113.34;;;-6.61;91.26
43125;BME280;49182;50.788;7.318;2023-01-29T03:36:13;102085.72;;;-6.90;91.38
43125;BME280;49182;50.788;7.318;2023-01-29T03:38:42;102256.88;;;-5.81;91.46
43125;BME280;49182;50.788;7.318;2023-01-29T03:41:16;102102.88;;;-6.83;90.96
43125;BME280;49182;50.788;7.318;2023-01-29T03:43:50;102106.28;;;-6.87;91.01
43125;BME280;49182;50.788;7.318;2023-01-29T03:46:25;102317.06;;;-5.47;91.64
43125;BME280;49182;50.788;7.318;2023-01-29T03:48:57;102317.94;;;-5.42;91.36
43125;BME280;49182;50.788;7.318;2023-01-29T03:51:30;102217.44;;;-5.87;91.37
43125;BME280;49182;50.788;7.318;2023-01-29T03:54:06;102242.28;;;-5.77;91.38
43125;BME280;49182;50.788;7.318;2023-01-29T04:05:10;102242.25;;;-5.94;91.79
43125;BME280;49182;50.788;7.318;2023-01-29T04:07:53;102182.03;;;-6.28;91.70
43125;BME280;49182;50.788;7.318;2023-01-29T04:10:26;102112.44;;;-6.67;91.88
43125;BME280;49182;50.788;7.318;2023-01-29T05:54:27;102134.94;;;-6.30;90.47
43125;BME280;49182;50.788;7.318;2023-01-29T05:56:56;101998.31;;;-7.13;89.73
43125;BME280;49182;50.788;7.318;2023-01-29T05:59:23;102134.88;;;-6.39;89.79
43125;BME280;49182;50.788;7.318;2023-01-29T06:11:08;102126.25;;;-6.50;89.77
43125;BME280;49182;50.788;7.318;2023-01-29T06:25:22;102041.91;;;-7.16;89.31
43125;BME280;49182;50.788;7.318;2023-01-29T06:28:05;102124.50;;;-6.53;89.50
43125;BME280;49182;50.788;7.318;2023-01-29T06:39:55;102138.25;;;-6.46;89.00
43125;BME280;49182;50.788;7.318;2023-01-29T07:02:01;102071.94;;;-7.05;88.89
43125;BME280;49182;50.788;7.318;2023-01-29T08:08:11;102283.94;;;-4.16;88.51
43125;BME280;49182;50.788;7.318;2023-01-29T08:10:48;102289.09;;;-4.09;88.77
43125;BME280;49182;50.788;7.318;2023-01-29T08:13:18;102249.56;;;-4.20;88.48
43125;BME280;49182;50.788;7.318;2023-01-29T08:15:46;102220.34;;;-4.26;88.84
43125;BME280;49182;50.788;7.318;2023-01-29T08:18:13;102270.13;;;-3.86;88.42
43125;BME280;49182;50.788;7.318;2023-01-29T08:20:40;102259.84;;;-3.89;88.26
43125;BME280;49182;50.788;7.318;2023-01-29T08:23:14;102272.69;;;-3.73;88.19
43125;BME280;49182;50.788;7.318;2023-01-29T08:25:43;102270.97;;;-3.68;87.90
43125;BME280;49182;50.788;7.318;2023-01-29T08:28:10;102276.09;;;-3.57;87.36
43125;BME280;49182;50.788;7.318;2023-01-29T08:30:37;102275.25;;;-3.53;87.41
43125;BME280;49182;50.788;7.318;2023-01-29T08:33:04;102215.09;;;-3.81;87.22
43125;BME280;49182;50.788;7.318;2023-01-29T08:35:31;102239.09;;;-3.57;87.31
43125;BME280;49182;50.788;7.318;2023-01-29T08:38:00;102275.16;;;-3.33;87.23
43125;BME280;49182;50.788;7.318;2023-01-29T08:40:30;102277.72;;;-3.27;87.20
43125;BME280;49182;50.788;7.318;2023-01-29T08:42:57;102226.16;;;-3.51;86.50
43125;BME280;49182;50.788;7.318;2023-01-29T08:45:28;102264.78;;;-3.18;86.60
43125;BME280;49182;50.788;7.318;2023-01-29T08:47:55;102275.88;;;-3.01;86.34
43125;BME280;49182;50.788;7.318;2023-01-29T08:50:22;102239.78;;;-3.10;85.46
43125;BME280;49182;50.788;7.318;2023-01-29T08:52:48;102225.13;;;-3.14;85.89
43125;BME280;49182;50.788;7.318;2023-01-29T08:55:15;102265.47;;;-2.87;85.41
43125;BME280;49182;50.788;7.318;2023-01-29T08:57:44;102271.47;;;-2.80;85.51
43125;BME280;49182;50.788;7.318;2023-01-29T09:00:11;102227.66;;;-2.97;85.31
43125;BME280;49182;50.788;7.318;2023-01-29T09:02:38;102266.25;;;-2.74;86.11
43125;BME280;49182;50.788;7.318;2023-01-29T09:05:06;102271.38;;;-2.68;86.43
43125;BME280;49182;50.788;7.318;2023-01-29T09:07:32;102264.47;;;-2.65;86.49
43125;BME280;49182;50.788;7.318;2023-01-29T09:10:00;102261.81;;;-2.57;86.28
43125;BME280;49182;50.788;7.318;2023-01-29T09:12:26;102263.53;;;-2.55;86.02
43125;BME280;49182;50.788;7.318;2023-01-29T09:14:55;102274.66;;;-2.43;85.68
43125;BME280;49182;50.788;7.318;2023-01-29T09:17:21;102263.41;;;-2.39;85.47
43125;BME280;49182;50.788;7.318;2023-01-29T09:19:48;102249.63;;;-2.37;85.57
43125;BME280;49182;50.788;7.318;2023-01-29T09:22:14;102254.69;;;-2.28;85.87
43125;BME280;49182;50.788;7.318;2023-01-29T09:24:41;102234.09;;;-2.37;85.45
43125;BME280;49182;50.788;7.318;2023-01-29T09:27:07;102257.97;;;-2.09;85.27
43125;BME280;49182;50.788;7.318;2023-01-29T09:29:34;102248.59;;;-2.16;85.72
43125;BME280;49182;50.788;7.318;2023-01-29T09:32:04;102275.94;;;-1.91;85.28
43125;BME280;49182;50.788;7.318;2023-01-29T09:34:32;102266.38;;;-1.84;85.61
43125;BME280;49182;50.788;7.318;2023-01-29T09:36:59;102123.94;;;-2.53;85.25
43125;BME280;49182;50.788;7.318;2023-01-29T09:39:25;102245.41;;;-1.60;84.29
43125;BME280;49182;50.788;7.318;2023-01-29T09:41:55;102249.69;;;-1.54;84.35
43125;BME280;49182;50.788;7.318;2023-01-29T09:44:37;102239.22;;;-1.47;84.48
43125;BME280;49182;50.788;7.318;2023-01-29T09:47:12;102248.69;;;-1.43;84.41
43125;BME280;49182;50.788;7.318;2023-01-29T09:49:43;102234.72;;;-1.33;85.07
43125;BME280;49182;50.788;7.318;2023-01-29T09:52:16;102223.44;;;-1.29;85.62
43125;BME280;49182;50.788;7.318;2023-01-29T09:54:50;102220.69;;;-1.15;85.29
43125;BME280;49182;50.788;7.318;2023-01-29T09:57:23;102204.25;;;-1.14;84.65
43125;BME280;49182;50.788;7.318;2023-01-29T09:59:52;102204.13;;;-1.05;85.42
43125;BME280;49182;50.788;7.318;2023-01-29T10:02:38;102220.22;;;-0.82;85.42
43125;BME280;49182;50.788;7.318;2023-01-29T10:05:19;102214.00;;;-0.71;85.26
43125;BME280;49182;50.788;7.318;2023-01-29T10:08:06;102134.22;;;-1.09;84.93
43125;BME280;49182;50.788;7.318;2023-01-29T10:10:47;102154.63;;;-0.87;85.08
43125;BME280;49182;50.788;7.318;2023-01-29T10:13:20;102202.38;;;-0.48;85.06
43125;BME280;49182;50.788;7.318;2023-01-29T10:16:03;102167.97;;;-0.57;84.37
43125;BME280;49182;50.788;7.318;2023-01-29T10:21:51;102190.81;;;-0.30;83.74
43125;BME280;49182;50.788;7.318;2023-01-29T10:24:27;102174.56;;;-0.38;84.00
43125;BME280;49182;50.788;7.318;2023-01-29T10:26:56;102189.75;;;-0.18;83.54
43125;BME280;49182;50.788;7.318;2023-01-29T10:29:23;102193.06;;;-0.09;83.85
43125;BME280;49182;50.788;7.318;2023-01-29T10:31:55;102184.13;;;0.06;82.65
43125;BME280;49182;50.788;7.318;2023-01-29T10:34:27;102192.56;;;0.17;82.67
43125;BME280;49182;50.788;7.318;2023-01-29T10:36:58;102181.19;;;0.24;82.88
43125;BME280;49182;50.788;7.318;2023-01-29T10:39:25;102187.00;;;0.35;82.75
43125;BME280;49182;50.788;7.318;2023-01-29T10:42:07;102182.56;;;0.42;80.88
43125;BME280;49182;50.788;7.318;2023-01-29T10:44:49;102171.94;;;0.53;79.86
43125;BME280;49182;50.788;7.318;2023-01-29T10:47:33;102173.31;;;0.69;80.63
43125;BME280;49182;50.788;7.318;2023-01-29T10:50:15;102166.09;;;0.81;79.19
43125;BME280;49182;50.788;7.318;2023-01-29T10:52:55;102159.84;;;0.90;79.14
43125;BME280;49182;50.788;7.318;2023-01-29T10:55:37;102159.56;;;1.02;77.86
43125;BME280;49182;50.788;7.318;2023-01-29T10:58:13;102138.78;;;1.01;78.86
43125;BME280;49182;50.788;7.318;2023-01-29T11:00:44;102106.91;;;0.93;79.29
43125;BME280;49182;50.788;7.318;2023-01-29T11:03:15;102153.56;;;1.36;78.86
43125;BME280;49182;50.788;7.318;2023-01-29T11:05:58;102004.63;;;0.58;77.00
43125;BME280;49182;50.788;7.318;2023-01-29T11:08:36;102133.25;;;1.48;75.48
43125;BME280;49182;50.788;7.318;2023-01-29T11:11:06;102141.78;;;1.55;74.41
43125;BME280;49182;50.788;7.318;2023-01-29T11:13:37;102127.22;;;1.48;74.25
43125;BME280;49182;50.788;7.318;2023-01-29T11:16:07;102124.31;;;1.60;72.55
43125;BME280;49182;50.788;7.318;2023-01-29T11:18:55;102117.22;;;1.65;71.80
43125;BME280;49182;50.788;7.318;2023-01-29T11:21:23;102120.53;;;1.72;70.58
43125;BME280;49182;50.788;7.318;2023-01-29T11:24:04;102096.84;;;1.48;71.09
43125;BME280;49182;50.788;7.318;2023-01-29T11:26:35;102109.31;;;1.68;70.57
43125;BME280;49182;50.788;7.318;2023-01-29T11:29:03;102102.41;;;1.67;71.08
43125;BME280;49182;50.788;7.318;2023-01-29T11:31:35;102097.00;;;1.75;70.59
43125;BME280;49182;50.788;7.318;2023-01-29T11:34:04;102100.16;;;1.86;70.28
43125;BME280;49182;50.788;7.318;2023-01-29T11:36:34;102088.94;;;1.84;70.24
43125;BME280;49182;50.788;7.318;2023-01-29T11:39:16;102088.16;;;1.80;70.41
43125;BME280;49182;50.788;7.318;2023-01-29T11:41:47;102085.69;;;1.76;70.36
43125;BME280;49182;50.788;7.318;2023-01-29T11:44:19;102080.91;;;1.91;69.48
43125;BME280;49182;50.788;7.318;2023-01-29T11:46:47;102055.09;;;1.84;69.49
43125;BME280;49182;50.788;7.318;2023-01-29T11:49:30;102050.50;;;1.92;68.33
43125;BME280;49182;50.788;7.318;2023-01-29T11:52:00;102065.38;;;1.88;69.87
43125;BME280;49182;50.788;7.318;2023-01-29T11:54:31;102041.72;;;1.67;67.69
43125;BME280;49182;50.788;7.318;2023-01-29T11:57:00;102058.56;;;1.84;69.15
43125;BME280;49182;50.788;7.318;2023-01-29T11:59:34;102056.69;;;1.89;69.48
43125;BME280;49182;50.788;7.318;2023-01-29T12:02:16;102041.44;;;2.05;70.16
43125;BME280;49182;50.788;7.318;2023-01-29T12:04:44;102038.66;;;2.11;69.23
43125;BME280;49182;50.788;7.318;2023-01-29T12:07:13;102029.75;;;2.18;68.46
43125;BME280;49182;50.788;7.318;2023-01-29T12:09:49;102032.91;;;2.29;68.96
43125;BME280;49182;50.788;7.318;2023-01-29T12:12:27;102019.56;;;2.40;69.48
43125;BME280;49182;50.788;7.318;2023-01-29T12:15:15;102024.50;;;2.48;67.71
43125;BME280;49182;50.788;7.318;2023-01-29T12:17:46;101989.44;;;2.30;67.77
43125;BME280;49182;50.788;7.318;2023-01-29T12:20:21;101991.13;;;2.32;67.71
43125;BME280;49182;50.788;7.318;2023-01-29T12:22:55;102013.88;;;2.54;67.63
43125;BME280;49182;50.788;7.318;2023-01-29T12:25:39;102005.00;;;2.33;66.00
43125;BME280;49182;50.788;7.318;2023-01-29T12:28:16;102013.72;;;2.32;66.75
43125;BME280;49182;50.788;7.318;2023-01-29T12:30:52;102009.69;;;2.50;66.26
43125;BME280;49182;50.788;7.318;2023-01-29T12:33:28;101972.88;;;2.32;66.54
43125;BME280;49182;50.788;7.318;2023-01-29T12:36:06;101978.09;;;2.32;67.07
43125;BME280;49182;50.788;7.318;2023-01-29T12:38:36;101944.50;;;2.23;66.98
43125;BME280;49182;50.788;7.318;2023-01-29T12:41:07;101942.56;;;2.30;67.16
43125;BME280;49182;50.788;7.318;2023-01-29T12:43:42;101978.63;;;2.70;67.69
43125;BME280;49182;50.788;7.318;2023-01-29T12:46:17;101975.59;;;2.82;67.63
43125;BME280;49182;50.788;7.318;2023-01-29T12:48:48;101958.13;;;2.84;67.91
43125;BME280;49182;50.788;7.318;2023-01-29T12:51:17;101953.75;;;2.84;67.53
43125;BME280;49182;50.788;7.318;2023-01-29T12:53:49;101952.78;;;2.89;67.88
43125;BME280;49182;50.788;7.318;2023-01-29T12:56:26;101909.75;;;2.75;67.45
43125;BME280;49182;50.788;7.318;2023-01-29T12:58:55;101880.03;;;2.55;66.85
43125;BME280;49182;50.788;7.318;2023-01-29T13:01:27;101930.88;;;2.93;66.94
43125;BME280;49182;50.788;7.318;2023-01-29T13:03:58;101926.63;;;2.90;67.13
43125;BME280;49182;50.788;7.318;2023-01-29T13:06:30;101925.06;;;3.09;67.58
43125;BME280;49182;50.788;7.318;2023-01-29T13:09:02;101921.53;;;3.35;66.05
43125;BME280;49182;50.788;7.318;2023-01-29T13:11:35;101895.56;;;3.32;64.53
43125;BME280;49182;50.788;7.318;2023-01-29T13:14:08;101918.47;;;3.47;65.35
43125;BME280;49182;50.788;7.318;2023-01-29T13:16:42;101902.78;;;3.47;65.69
43125;BME280;49182;50.788;7.318;2023-01-29T13:19:19;101905.03;;;3.58;64.50
43125;BME280;49182;50.788;7.318;2023-01-29T13:21:47;101907.69;;;3.56;64.08
43125;BME280;49182;50.788;7.318;2023-01-29T13:24:16;101909.31;;;3.59;62.56
43125;BME280;49182;50.788;7.318;2023-01-29T13:26:46;101903.59;;;3.49;62.85
43125;BME280;49182;50.788;7.318;2023-01-29T13:29:21;101901.31;;;3.40;63.95
43125;BME280;49182;50.788;7.318;2023-01-29T13:31:51;101868.38;;;3.14;64.40
43125;BME280;49182;50.788;7.318;2023-01-29T13:34:23;101884.31;;;3.30;64.87
43125;BME280;49182;50.788;7.318;2023-01-29T13:36:54;101897.56;;;3.47;64.23
43125;BME280;49182;50.788;7.318;2023-01-29T13:39:26;101889.56;;;3.29;64.88
43125;BME280;49182;50.788;7.318;2023-01-29T13:42:00;101883.41;;;3.31;65.34
43125;BME280;49182;50.788;7.318;2023-01-29T13:44:33;101868.28;;;3.16;65.18
43125;BME280;49182;50.788;7.318;2023-01-29T13:47:02;101855.38;;;3.13;65.08
43125;BME280;49182;50.788;7.318;2023-01-29T13:49:34;101875.66;;;3.28;64.96
43125;BME280;49182;50.788;7.318;2023-01-29T13:52:20;101872.13;;;3.31;65.52
43125;BME280;49182;50.788;7.318;2023-01-29T13:54:58;101870.19;;;3.36;64.71
43125;BME280;49182;50.788;7.318;2023-01-29T13:57:48;101856.50;;;3.29;64.43
43125;BME280;49182;50.788;7.318;2023-01-29T14:03:49;101834.38;;;3.39;65.00
43125;BME280;49182;50.788;7.318;2023-01-29T14:06:49;101842.00;;;3.67;64.01
43125;BME280;49182;50.788;7.318;2023-01-29T14:09:33;101836.09;;;3.84;62.15
43125;BME280;49182;50.788;7.318;2023-01-29T14:12:00;101834.63;;;3.77;62.55
43125;BME280;49182;50.788;7.318;2023-01-29T14:15:00;101825.16;;;3.74;63.08
43125;BME280;49182;50.788;7.318;2023-01-29T14:17:28;101829.72;;;3.69;64.42
43125;BME280;49182;50.788;7.318;2023-01-29T14:20:00;101825.66;;;3.62;61.66
43125;BME280;49182;50.788;7.318;2023-01-29T14:22:29;101825.97;;;3.76;61.31
43125;BME280;49182;50.788;7.318;2023-01-29T14:25:00;101821.31;;;3.83;60.79
43125;BME280;49182;50.788;7.318;2023-01-29T14:27:30;101797.75;;;3.84;60.66
43125;BME280;49182;50.788;7.318;2023-01-29T14:30:02;101812.56;;;4.05;61.42
43125;BME280;49182;50.788;7.318;2023-01-29T14:32:33;101810.81;;;4.06;59.31
43125;BME280;49182;50.788;7.318;2023-01-29T14:35:01;101761.94;;;3.88;59.74
43125;BME280;49182;50.788;7.318;2023-01-29T14:37:32;101818.41;;;4.12;59.82
43125;BME280;49182;50.788;7.318;2023-01-29T14:40:14;101822.97;;;4.07;59.57
43125;BME280;49182;50.788;7.318;2023-01-29T14:42:54;101831.56;;;4.09;60.46
43125;BME280;49182;50.788;7.318;2023-01-29T14:45:27;101829.75;;;4.11;60.44
43125;BME280;49182;50.788;7.318;2023-01-29T14:47:56;101830.47;;;4.15;60.08
43125;BME280;49182;50.788;7.318;2023-01-29T14:50:41;101831.25;;;4.17;60.84
43125;BME280;49182;50.788;7.318;2023-01-29T14:53:12;101805.59;;;3.84;60.01
43125;BME280;49182;50.788;7.318;2023-01-29T14:55:42;101772.69;;;3.58;60.42
43125;BME280;49182;50.788;7.318;2023-01-29T14:58:12;101837.34;;;3.95;60.57
43125;BME280;49182;50.788;7.318;2023-01-29T15:00:43;101837.78;;;3.85;60.26
43125;BME280;49182;50.788;7.318;2023-01-29T15:03:14;101834.53;;;3.80;61.13
43125;BME280;49182;50.788;7.318;2023-01-29T15:05:47;101810.19;;;3.57;61.40
43125;BME280;49182;50.788;7.318;2023-01-29T15:08:19;101840.94;;;3.71;61.35
43125;BME280;49182;50.788;7.318;2023-01-29T15:10:52;101839.38;;;3.67;62.01
43125;BME280;49182;50.788;7.318;2023-01-29T15:13:24;101844.88;;;3.59;61.98
43125;BME280;49182;50.788;7.318;2023-01-29T15:15:57;101847.63;;;3.56;62.20
43125;BME280;49182;50.788;7.318;2023-01-29T15:18:32;101842.13;;;3.41;60.89
43125;BME280;49182;50.788;7.318;2023-01-29T15:21:01;101839.13;;;3.28;61.69
43125;BME280;49182;50.788;7.318;2023-01-29T15:23:32;101841.75;;;3.28;61.68
43125;BME280;49182;50.788;7.318;2023-01-29T15:26:02;101816.69;;;3.01;62.23
43125;BME280;49182;50.788;7.318;2023-01-29T15:28:31;101844.81;;;3.16;61.95
43125;BME280;49182;50.788;7.318;2023-01-29T15:31:00;101843.09;;;3.15;62.27
43125;BME280;49182;50.788;7.318;2023-01-29T15:33:30;101847.56;;;3.13;63.00
43125;BME280;49182;50.788;7.318;2023-01-29T15:35:58;101840.63;;;3.12;62.84
43125;BME280;49182;50.788;7.318;2023-01-29T15:38:34;101846.03;;;3.07;63.22
43125;BME280;49182;50.788;7.318;2023-01-29T15:41:12;101841.66;;;3.08;63.74
43125;BME280;49182;50.788;7.318;2023-01-29T15:43:42;101838.28;;;3.04;64.06
43125;BME280;49182;50.788;7.318;2023-01-29T15:46:17;101831.69;;;2.96;64.42
43125;BME280;49182;50.788;7.318;2023-01-29T15:48:46;101842.88;;;2.98;64.79
43125;BME280;49182;50.788;7.318;2023-01-29T15:51:16;101836.03;;;2.95;65.46
43125;BME280;49182;50.788;7.318;2023-01-29T15:53:47;101817.28;;;2.84;66.21
43125;BME280;49182;50.788;7.318;2023-01-29T15:56:18;101829.28;;;2.90;66.71
43125;BME280;49182;50.788;7.318;2023-01-29T15:58:48;101827.72;;;2.84;67.10
43125;BME280;49182;50.788;7.318;2023-01-29T16:01:17;101811.75;;;2.70;67.51
43125;BME280;49182;50.788;7.318;2023-01-29T16:03:44;101825.34;;;2.78;68.02
43125;BME280;49182;50.788;7.318;2023-01-29T16:06:11;101802.59;;;2.58;68.32
43125;BME280;49182;50.788;7.318;2023-01-29T16:08:39;101805.09;;;2.61;68.40
43125;BME280;49182;50.788;7.318;2023-01-29T16:11:07;101823.97;;;2.68;69.20
43125;BME280;49182;50.788;7.318;2023-01-29T16:13:39;101821.53;;;2.63;69.53
43125;BME280;49182;50.788;7.318;2023-01-29T16:16:21;101817.44;;;2.56;68.51
43125;BME280;49182;50.788;7.318;2023-01-29T16:18:50;101821.19;;;2.48;68.66
43125;BME280;49182;50.788;7.318;2023-01-29T16:21:28;101830.16;;;2.40;69.14
43125;BME280;49182;50.788;7.318;2023-01-29T16:23:57;101821.53;;;2.38;69.52
43125;BME280;49182;50.788;7.318;2023-01-29T16:26:26;101802.81;;;2.27;69.69
43125;BME280;49182;50.788;7.318;2023-01-29T16:28:54;101794.44;;;2.18;70.07
43125;BME280;49182;50.788;7.318;2023-01-29T16:31:25;101821.78;;;2.31;70.55
43125;BME280;49182;50.788;7.318;2023-01-29T16:33:53;101819.22;;;2.29;70.50
43125;BME280;49182;50.788;7.318;2023-01-29T16:36:25;101821.84;;;2.29;70.87
43125;BME280;49182;50.788;7.318;2023-01-29T16:38:53;101823.66;;;2.27;70.79
43125;BME280;49182;50.788;7.318;2023-01-29T16:41:29;101814.88;;;2.30;70.76
43125;BME280;49182;50.788;7.318;2023-01-29T16:43:57;101793.88;;;2.10;71.06
43125;BME280;49182;50.788;7.318;2023-01-29T16:46:31;101805.03;;;2.13;71.36
43125;BME280;49182;50.788;7.318;2023-01-29T16:48:58;101815.28;;;2.18;71.67
43125;BME280;49182;50.788;7.318;2023-01-29T16:51:27;101813.53;;;2.18;71.68
43125;BME280;49182;50.788;7.318;2023-01-29T16:53:58;101815.28;;;2.18;71.64
43125;BME280;49182;50.788;7.318;2023-01-29T16:56:29;101817.13;;;2.16;71.93
43125;BME280;49182;50.788;7.318;2023-01-29T16:58:58;101817.19;;;2.13;72.06
43125;BME280;49182;50.788;7.318;2023-01-29T17:01:28;101805.31;;;2.04;72.02
43125;BME280;49182;50.788;7.318;2023-01-29T17:03:59;101809.59;;;2.07;72.18
43125;BME280;49182;50.788;7.318;2023-01-29T17:06:30;101808.53;;;2.12;71.53
43125;BME280;49182;50.788;7.318;2023-01-29T17:08:57;101757.78;;;1.73;71.12
43125;BME280;49182;50.788;7.318;2023-01-29T17:11:29;101802.09;;;1.97;71.15
43125;BME280;49182;50.788;7.318;2023-01-29T17:13:57;101812.16;;;2.08;71.10
43125;BME280;49182;50.788;7.318;2023-01-29T17:16:28;101812.44;;;1.99;70.36
43125;BME280;49182;50.788;7.318;2023-01-29T17:18:55;101814.09;;;2.01;70.78
43125;BME280;49182;50.788;7.318;2023-01-29T17:21:22;101812.44;;;1.99;70.04
43125;BME280;49182;50.788;7.318;2023-01-29T17:23:49;101807.44;;;1.93;69.94
43125;BME280;49182;50.788;7.318;2023-01-29T17:26:16;101798.31;;;1.80;69.87
43125;BME280;49182;50.788;7.318;2023-01-29T17:28:44;101819.56;;;1.94;70.32
43125;BME280;49182;50.788;7.318;2023-01-29T17:31:11;101825.63;;;1.94;70.36
43125;BME280;49182;50.788;7.318;2023-01-29T17:33:41;101822.41;;;1.86;70.38
43125;BME280;49182;50.788;7.318;2023-01-29T17:36:10;101827.59;;;1.86;70.40
43125;BME280;49182;50.788;7.318;2023-01-29T17:38:36;101810.38;;;1.82;70.15
43125;BME280;49182;50.788;7.318;2023-01-29T17:41:05;101807.59;;;1.88;70.26
43125;BME280;49182;50.788;7.318;2023-01-29T17:43:33;101807.44;;;1.93;70.70
43125;BME280;49182;50.788;7.318;2023-01-29T17:46:00;101802.34;;;1.90;70.77
43125;BME280;49182;50.788;7.318;2023-01-29T17:48:28;101800.50;;;1.92;70.71
43125;BME280;49182;50.788;7.318;2023-01-29T17:50:57;101803.22;;;1.89;70.66
43125;BME280;49182;50.788;7.318;2023-01-29T17:53:26;101798.19;;;1.84;70.73
43125;BME280;49182;50.788;7.318;2023-01-29T17:56:14;101789.53;;;1.84;70.25
43125;BME280;49182;50.788;7.318;2023-01-29T17:58:41;101776.44;;;1.85;70.23
43125;BME280;49182;50.788;7.318;2023-01-29T18:01:07;101761.53;;;1.90;70.88
43125;BME280;49182;50.788;7.318;2023-01-29T18:03:34;101751.13;;;1.90;70.55
43125;BME280;49182;50.788;7.318;2023-01-29T18:06:02;101746.03;;;1.86;70.59
43125;BME280;49182;50.788;7.318;2023-01-29T18:08:31;101745.31;;;1.82;70.83
43125;BME280;49182;50.788;7.318;2023-01-29T18:10:59;101749.69;;;1.80;70.49
43125;BME280;49182;50.788;7.318;2023-01-29T18:13:26;101748.91;;;1.78;70.64
43125;BME280;49182;50.788;7.318;2023-01-29T18:15:53;101755.88;;;1.78;70.34
43125;BME280;49182;50.788;7.318;2023-01-29T18:18:21;101744.03;;;1.68;69.96
43125;BME280;49182;50.788;7.318;2023-01-29T18:20:49;101746.00;;;1.61;70.72
43125;BME280;49182;50.788;7.318;2023-01-29T18:23:17;101745.09;;;1.62;70.71
43125;BME280;49182;50.788;7.318;2023-01-29T18:25:44;101746.72;;;1.66;70.77
43125;BME280;49182;50.788;7.318;2023-01-29T18:28:13;101743.69;;;1.52;70.52
43125;BME280;49182;50.788;7.318;2023-01-29T18:30:40;101736.63;;;1.55;70.75
43125;BME280;49182;50.788;7.318;2023-01-29T18:33:06;101735.75;;;1.56;70.55
43125;BME280;49182;50.788;7.318;2023-01-29T18:35:33;101735.19;;;1.47;70.83
43125;BME280;49182;50.788;7.318;2023-01-29T18:37:59;101744.78;;;1.45;71.04
43125;BME280;49182;50.788;7.318;2023-01-29T18:40:27;101742.44;;;1.37;71.09
43125;BME280;49182;50.788;7.318;2023-01-29T18:42:54;101738.13;;;1.36;71.10
43125;BME280;49182;50.788;7.318;2023-01-29T18:45:20;101738.06;;;1.38;71.10
43125;BME280;49182;50.788;7.318;2023-01-29T18:47:47;101736.97;;;1.45;70.99
43125;BME280;49182;50.788;7.318;2023-01-29T18:50:14;101733.75;;;1.37;70.92
43125;BME280;49182;50.788;7.318;2023-01-29T18:52:42;101736.53;;;1.32;71.16
43125;BME280;49182;50.788;7.318;2023-01-29T18:55:09;101718.47;;;1.28;70.79
43125;BME280;49182;50.788;7.318;2023-01-29T18:57:37;101729.03;;;1.23;70.03
43125;BME280;49182;50.788;7.318;2023-01-29T19:00:24;101730.66;;;1.26;70.37
43125;BME280;49182;50.788;7.318;2023-01-29T19:02:50;101699.97;;;1.09;70.53
43125;BME280;49182;50.788;7.318;2023-01-29T19:05:17;101717.31;;;1.36;70.68
43125;BME280;49182;50.788;7.318;2023-01-29T19:07:44;101665.13;;;1.14;69.98
43125;BME280;49182;50.788;7.318;2023-01-29T19:10:11;101705.09;;;1.38;70.05
43125;BME280;49182;50.788;7.318;2023-01-29T19:12:39;101703.41;;;1.37;70.23
43125;BME280;49182;50.788;7.318;2023-01-29T19:15:06;101703.28;;;1.42;69.91
43125;BME280;49182;50.788;7.318;2023-01-29T19:17:33;101694.63;;;1.41;69.87
43125;BME280;49182;50.788;7.318;2023-01-29T19:20:00;101687.50;;;1.46;69.75
43125;BME280;49182;50.788;7.318;2023-01-29T19:22:27;101685.69;;;1.48;70.33
43125;BME280;49182;50.788;7.318;2023-01-29T19:24:53;101683.84;;;1.52;70.71
43125;BME280;49182;50.788;7.318;2023-01-29T19:27:20;101676.00;;;1.53;70.96
43125;BME280;49182;50.788;7.318;2023-01-29T19:29:48;101659.03;;;1.42;71.34
43125;BME280;49182;50.788;7.318;2023-01-29T19:32:14;101662.91;;;1.55;71.32
43125;BME280;49182;50.788;7.318;2023-01-29T19:34:41;101663.19;;;1.47;70.53
43125;BME280;49182;50.788;7.318;2023-01-29T19:37:07;101656.06;;;1.52;70.28
43125;BME280;49182;50.788;7.318;2023-01-29T19:39:34;101653.63;;;1.48;70.83
43125;BME280;49182;50.788;7.318;2023-01-29T19:42:01;101622.09;;;1.31;70.45
43125;BME280;49182;50.788;7.318;2023-01-29T19:44:27;101643.53;;;1.39;70.83
43125;BME280;49182;50.788;7.318;2023-01-29T19:46:55;101650.09;;;1.49;70.50
43125;BME280;49182;50.788;7.318;2023-01-29T19:49:23;101644.16;;;1.45;70.38
43125;BME280;49182;50.788;7.318;2023-01-29T19:51:50;101638.13;;;1.45;70.21
43125;BME280;49182;50.788;7.318;2023-01-29T19:54:17;101629.41;;;1.46;70.25
43125;BME280;49182;50.788;7.318;2023-01-29T19:56:43;101628.34;;;1.51;70.46
43125;BME280;49182;50.788;7.318;2023-01-29T19:59:10;101626.13;;;1.41;70.54
43125;BME280;49182;50.788;7.318;2023-01-29T20:01:37;101620.72;;;1.47;70.90
43125;BME280;49182;50.788;7.318;2023-01-29T20:04:05;101620.53;;;1.51;70.75
43125;BME280;49182;50.788;7.318;2023-01-29T20:06:31;101628.50;;;1.47;70.64
43125;BME280;49182;50.788;7.318;2023-01-29T20:08:58;101623.22;;;1.48;70.67
43125;BME280;49182;50.788;7.318;2023-01-29T20:11:24;101616.44;;;1.44;71.26
43125;BME280;49182;50.788;7.318;2023-01-29T20:13:51;101614.53;;;1.49;71.53
43125;BME280;49182;50.788;7.318;2023-01-29T20:16:22;101616.84;;;1.58;71.69
43125;BME280;49182;50.788;7.318;2023-01-29T20:18:51;101591.59;;;1.60;71.55